createdAt,value
2022-11-22T00:00:04.408Z,21.6
2022-11-22T00:01:04.377Z,21.6
2022-11-22T00:02:04.463Z,21.6
2022-11-22T00:03:04.405Z,21.6
2022-11-22T00:04:04.409Z,21.6
2022-11-22T00:05:04.382Z,21.5
2022-11-22T00:06:04.404Z,21.5
2022-11-22T00:07:04.437Z,21.5
2022-11-22T00:08:04.404Z,21.5
2022-11-22T00:09:04.423Z,21.5
2022-11-22T00:10:04.503Z,21.5
2022-11-22T00:12:49.225Z,21.5
2022-11-22T00:12:54.083Z,21.2
2022-11-22T00:13:06.474Z,21.2
2022-11-22T00:14:04.858Z,21.4
2022-11-22T00:15:05.648Z,21.4
2022-11-22T00:16:04.689Z,21.4
2022-11-22T00:17:04.879Z,21.4
2022-11-22T00:18:04.474Z,21.4
2022-11-22T00:19:04.521Z,21.4
2022-11-22T00:20:04.816Z,21.4
2022-11-22T00:21:04.381Z,21.4
2022-11-22T00:22:04.490Z,21.3
2022-11-22T00:23:04.394Z,21.3
2022-11-22T00:24:05.719Z,21.3
2022-11-22T00:25:04.389Z,21.3
2022-11-22T00:26:04.463Z,21.3
2022-11-22T00:27:04.434Z,21.3
2022-11-22T00:28:04.421Z,21.3
2022-11-22T00:29:04.408Z,21.3
2022-11-22T00:30:04.609Z,21.2
2022-11-22T00:31:04.665Z,21.2
2022-11-22T00:32:05.140Z,21.2
2022-11-22T00:33:04.401Z,21.1
2022-11-22T00:34:04.420Z,21.1
2022-11-22T00:35:04.381Z,21.1
2022-11-22T00:36:04.412Z,21.0
2022-11-22T00:37:04.382Z,21.0
2022-11-22T00:38:04.461Z,21.0
2022-11-22T00:39:04.407Z,21.0
2022-11-22T00:40:04.385Z,20.9
2022-11-22T00:41:04.426Z,20.9
2022-11-22T00:42:04.387Z,20.9
2022-11-22T00:43:04.413Z,20.9
2022-11-22T00:44:04.420Z,20.9
2022-11-22T00:45:04.435Z,20.8
2022-11-22T00:46:04.408Z,20.8
2022-11-22T00:47:04.409Z,20.8
2022-11-22T00:48:04.389Z,20.9
2022-11-22T00:49:04.412Z,20.8
2022-11-22T00:50:04.425Z,20.8
2022-11-22T00:51:04.426Z,20.8
2022-11-22T00:52:04.408Z,20.8
2022-11-22T00:53:04.422Z,20.7
2022-11-22T00:54:04.392Z,20.7
2022-11-22T00:55:04.416Z,20.7
2022-11-22T00:56:04.440Z,20.7
2022-11-22T00:57:04.425Z,20.7
2022-11-22T00:58:04.384Z,20.6
2022-11-22T00:59:04.417Z,20.6
2022-11-22T01:00:04.397Z,20.7
2022-11-22T01:01:04.453Z,20.7
2022-11-22T01:02:04.476Z,20.7
2022-11-22T01:03:04.422Z,20.6
2022-11-22T01:04:04.386Z,20.6
2022-11-22T01:05:04.428Z,20.6
2022-11-22T01:06:04.396Z,20.6
2022-11-22T01:07:04.464Z,20.6
2022-11-22T01:08:04.453Z,20.6
2022-11-22T01:09:04.417Z,20.6
2022-11-22T01:10:04.414Z,20.6
2022-11-22T01:11:04.417Z,20.6
2022-11-22T01:12:04.397Z,20.6
2022-11-22T01:13:04.418Z,20.5
2022-11-22T01:14:04.433Z,20.5
2022-11-22T01:15:04.435Z,20.5
2022-11-22T01:16:04.400Z,20.5
2022-11-22T01:17:04.431Z,20.5
2022-11-22T01:19:38.051Z,20.2
2022-11-22T01:20:04.031Z,20.3
2022-11-22T01:21:04.058Z,20.4
2022-11-22T01:22:04.032Z,20.4
2022-11-22T01:23:04.051Z,20.4
2022-11-22T01:24:04.095Z,20.4
2022-11-22T01:25:04.082Z,20.4
2022-11-22T01:26:04.019Z,20.4
2022-11-22T01:27:04.901Z,20.4
2022-11-22T01:28:04.022Z,20.4
2022-11-22T01:29:05.095Z,20.4
2022-11-22T01:30:04.018Z,20.3
2022-11-22T01:31:04.086Z,20.3
2022-11-22T01:32:04.040Z,20.3
2022-11-22T01:33:04.057Z,20.3
2022-11-22T01:34:04.034Z,20.3
2022-11-22T01:35:04.056Z,20.3
2022-11-22T01:36:04.031Z,20.3
2022-11-22T01:37:04.083Z,20.2
2022-11-22T01:38:04.033Z,20.3
2022-11-22T01:39:04.070Z,20.2
2022-11-22T01:40:04.041Z,20.2
2022-11-22T01:41:04.058Z,20.2
2022-11-22T01:42:10.916Z,20.1
2022-11-22T01:43:04.485Z,20.2
2022-11-22T01:44:04.574Z,20.2
2022-11-22T01:45:04.493Z,20.2
2022-11-22T01:46:04.521Z,20.2
2022-11-22T01:47:04.506Z,20.1
2022-11-22T01:48:04.555Z,20.1
2022-11-22T01:49:04.489Z,20.1
2022-11-22T01:50:04.523Z,20.1
2022-11-22T01:51:04.494Z,20.1
2022-11-22T01:52:04.525Z,20.1
2022-11-22T01:53:04.516Z,20.1
2022-11-22T01:54:04.547Z,20.1
2022-11-22T01:55:04.494Z,20.0
2022-11-22T01:56:04.520Z,20.0
2022-11-22T01:57:04.493Z,20.0
2022-11-22T01:58:04.517Z,20.0
2022-11-22T01:59:04.505Z,20.0
2022-11-22T02:00:04.714Z,20.0
2022-11-22T02:01:04.574Z,20.0
2022-11-22T02:02:04.532Z,20.0
2022-11-22T02:03:04.505Z,20.0
2022-11-22T02:04:04.534Z,19.9
2022-11-22T02:05:04.492Z,19.9
2022-11-22T02:06:04.620Z,19.9
2022-11-22T02:07:04.541Z,19.9
2022-11-22T02:08:04.536Z,19.9
2022-11-22T02:09:04.496Z,19.9
2022-11-22T02:10:04.528Z,19.9
2022-11-22T02:11:04.499Z,19.9
2022-11-22T02:12:04.564Z,19.9
2022-11-22T02:13:04.497Z,19.9
2022-11-22T02:14:04.528Z,19.9
2022-11-22T02:15:04.504Z,19.8
2022-11-22T02:16:04.526Z,19.8
2022-11-22T02:17:04.511Z,19.8
2022-11-22T02:18:04.563Z,19.8
2022-11-22T02:19:04.514Z,19.8
2022-11-22T02:20:04.545Z,19.8
2022-11-22T02:21:04.492Z,19.8
2022-11-22T02:22:04.528Z,19.8
2022-11-22T02:23:04.510Z,19.8
2022-11-22T02:24:04.550Z,19.8
2022-11-22T02:25:04.533Z,19.8
2022-11-22T02:26:04.527Z,19.8
2022-11-22T02:27:04.506Z,19.8
2022-11-22T02:28:04.535Z,19.8
2022-11-22T02:29:04.508Z,19.8
2022-11-22T02:30:04.552Z,19.7
2022-11-22T02:31:04.506Z,19.7
2022-11-22T02:32:04.537Z,19.7
2022-11-22T02:33:04.539Z,19.7
2022-11-22T02:34:04.508Z,19.7
2022-11-22T02:35:04.525Z,19.7
2022-11-22T02:36:04.529Z,19.7
2022-11-22T02:37:04.530Z,19.7
2022-11-22T02:38:04.511Z,19.7
2022-11-22T02:39:04.524Z,19.7
2022-11-22T02:40:04.516Z,19.7
2022-11-22T02:41:04.538Z,19.7
2022-11-22T02:42:04.535Z,19.7
2022-11-22T02:43:04.530Z,19.7
2022-11-22T02:44:04.509Z,19.7
2022-11-22T02:45:04.543Z,19.7
2022-11-22T02:46:04.504Z,19.6
2022-11-22T02:47:13.374Z,19.6
2022-11-22T02:48:56.064Z,19.3
2022-11-22T02:49:04.613Z,19.4
2022-11-22T02:50:04.367Z,19.5
2022-11-22T02:51:04.392Z,19.6
2022-11-22T02:52:04.369Z,19.6
2022-11-22T02:53:04.405Z,19.6
2022-11-22T02:54:04.393Z,19.6
2022-11-22T02:55:04.396Z,19.6
2022-11-22T02:56:04.361Z,19.6
2022-11-22T02:57:04.406Z,19.6
2022-11-22T02:58:04.370Z,19.6
2022-11-22T02:59:04.389Z,19.6
2022-11-22T03:00:04.409Z,19.6
2022-11-22T03:01:04.439Z,19.6
2022-11-22T03:02:04.376Z,19.5
2022-11-22T03:03:04.404Z,19.5
2022-11-22T03:04:04.376Z,19.5
2022-11-22T03:05:04.405Z,19.5
2022-11-22T03:06:04.410Z,19.5
2022-11-22T03:07:04.483Z,19.5
2022-11-22T03:08:04.369Z,19.5
2022-11-22T03:09:04.399Z,19.5
2022-11-22T03:10:04.379Z,19.5
2022-11-22T03:11:04.415Z,19.5
2022-11-22T03:12:04.432Z,19.5
2022-11-22T03:13:04.410Z,19.5
2022-11-22T03:14:04.379Z,19.5
2022-11-22T03:15:04.410Z,19.5
2022-11-22T03:16:04.484Z,19.5
2022-11-22T03:17:04.396Z,19.5
2022-11-22T03:18:04.402Z,19.5
2022-11-22T03:19:04.399Z,19.5
2022-11-22T03:20:04.379Z,19.5
2022-11-22T03:21:04.396Z,19.5
2022-11-22T03:22:04.377Z,19.5
2022-11-22T03:23:04.395Z,19.5
2022-11-22T03:24:04.402Z,19.4
2022-11-22T03:25:04.398Z,19.4
2022-11-22T03:26:04.379Z,19.4
2022-11-22T03:27:04.411Z,19.4
2022-11-22T03:28:04.387Z,19.4
2022-11-22T03:29:04.417Z,19.4
2022-11-22T03:30:04.431Z,19.4
2022-11-22T03:31:04.405Z,19.4
2022-11-22T03:32:04.391Z,19.4
2022-11-22T03:33:04.489Z,19.4
2022-11-22T03:34:04.568Z,19.4
2022-11-22T03:37:01.570Z,19.1
2022-11-22T03:37:05.806Z,19.1
2022-11-22T03:38:05.840Z,19.3
2022-11-22T03:39:06.372Z,19.3
2022-11-22T03:40:04.912Z,19.3
2022-11-22T03:41:04.557Z,19.4
2022-11-22T03:42:04.984Z,19.4
2022-11-22T03:43:04.851Z,19.3
2022-11-22T03:44:04.775Z,19.3
2022-11-22T03:45:05.789Z,19.3
2022-11-22T03:46:04.977Z,19.3
2022-11-22T03:47:04.140Z,19.3
2022-11-22T03:48:04.192Z,19.3
2022-11-22T03:49:04.145Z,19.3
2022-11-22T03:50:04.162Z,19.3
2022-11-22T03:51:04.140Z,19.3
2022-11-22T03:52:04.169Z,19.3
2022-11-22T03:53:04.134Z,19.3
2022-11-22T03:54:04.199Z,19.3
2022-11-22T03:55:04.144Z,19.3
2022-11-22T03:56:04.169Z,19.3
2022-11-22T03:57:04.140Z,19.3
2022-11-22T03:58:04.165Z,19.3
2022-11-22T03:59:04.138Z,19.3
2022-11-22T04:00:04.189Z,19.2
2022-11-22T04:01:04.173Z,19.3
2022-11-22T04:02:04.219Z,19.3
2022-11-22T04:03:04.143Z,19.3
2022-11-22T04:04:04.160Z,19.2
2022-11-22T04:05:04.165Z,19.2
2022-11-22T04:06:04.514Z,19.2
2022-11-22T04:07:04.254Z,19.2
2022-11-22T04:08:04.178Z,19.2
2022-11-22T04:09:04.216Z,19.2
2022-11-22T04:10:04.161Z,19.2
2022-11-22T04:11:04.152Z,19.2
2022-11-22T04:12:04.432Z,19.2
2022-11-22T04:13:04.165Z,19.2
2022-11-22T04:14:04.167Z,19.2
2022-11-22T04:15:04.140Z,19.2
2022-11-22T04:16:04.167Z,19.2
2022-11-22T04:17:04.178Z,19.2
2022-11-22T04:18:04.251Z,19.2
2022-11-22T04:19:04.160Z,19.2
2022-11-22T04:20:04.184Z,19.2
2022-11-22T04:21:04.150Z,19.1
2022-11-22T04:22:04.179Z,19.1
2022-11-22T04:23:04.183Z,19.1
2022-11-22T04:24:04.171Z,19.1
2022-11-22T04:25:04.145Z,19.1
2022-11-22T04:26:04.178Z,19.1
2022-11-22T04:27:04.155Z,19.1
2022-11-22T04:28:04.186Z,19.1
2022-11-22T04:29:09.554Z,19.1
2022-11-22T04:30:04.195Z,19.1
2022-11-22T04:31:04.200Z,19.1
2022-11-22T04:32:04.389Z,19.1
2022-11-22T04:33:04.236Z,19.1
2022-11-22T04:34:04.188Z,19.1
2022-11-22T04:35:10.870Z,19.0
2022-11-22T04:36:07.739Z,19.1
2022-11-22T04:37:11.285Z,19.0
2022-11-22T04:38:10.717Z,19.0
2022-11-22T04:39:04.445Z,19.0
2022-11-22T04:40:04.450Z,19.0
2022-11-22T04:41:04.453Z,19.1
2022-11-22T04:42:04.422Z,19.1
2022-11-22T04:43:04.499Z,19.0
2022-11-22T04:44:04.429Z,19.1
2022-11-22T04:45:04.470Z,19.0
2022-11-22T04:46:04.480Z,19.0
2022-11-22T04:47:04.450Z,19.0
2022-11-22T04:48:04.437Z,19.0
2022-11-22T04:49:04.452Z,19.0
2022-11-22T04:50:04.434Z,19.0
2022-11-22T04:51:04.454Z,19.0
2022-11-22T04:52:04.470Z,19.0
2022-11-22T04:53:04.457Z,19.0
2022-11-22T04:54:04.436Z,19.0
2022-11-22T04:55:04.458Z,19.0
2022-11-22T04:56:04.425Z,19.1
2022-11-22T04:57:04.460Z,19.1
2022-11-22T04:58:04.464Z,19.2
2022-11-22T04:59:04.479Z,19.2
2022-11-22T05:00:04.439Z,19.3
2022-11-22T05:01:04.489Z,19.3
2022-11-22T05:02:04.434Z,19.4
2022-11-22T05:03:04.480Z,19.4
2022-11-22T05:04:04.468Z,19.5
2022-11-22T05:05:04.530Z,19.5
2022-11-22T05:06:04.439Z,19.6
2022-11-22T05:07:04.533Z,19.6
2022-11-22T05:08:04.432Z,19.7
2022-11-22T05:09:04.480Z,19.7
2022-11-22T05:10:04.490Z,19.8
2022-11-22T05:11:04.458Z,19.8
2022-11-22T05:12:04.840Z,19.9
2022-11-22T05:13:04.469Z,19.9
2022-11-22T05:14:04.443Z,20.0
2022-11-22T05:15:04.467Z,20.0
2022-11-22T05:16:04.476Z,20.1
2022-11-22T05:17:04.476Z,20.2
2022-11-22T05:18:04.438Z,20.2
2022-11-22T05:19:04.458Z,20.3
2022-11-22T05:20:04.443Z,20.3
2022-11-22T05:21:04.464Z,20.4
2022-11-22T05:22:04.469Z,20.4
2022-11-22T05:23:04.473Z,20.5
2022-11-22T05:24:04.440Z,20.6
2022-11-22T05:25:04.469Z,20.6
2022-11-22T05:26:04.441Z,20.7
2022-11-22T05:27:52.353Z,20.7
2022-11-22T05:29:46.427Z,20.5
2022-11-22T05:30:04.957Z,20.7
2022-11-22T05:31:04.962Z,20.8
2022-11-22T05:32:06.259Z,20.9
2022-11-22T05:33:04.968Z,21.0
2022-11-22T05:34:04.975Z,21.0
2022-11-22T05:35:06.470Z,21.1
2022-11-22T05:36:04.997Z,21.1
2022-11-22T05:37:05.954Z,21.2
2022-11-22T05:38:05.033Z,21.2
2022-11-22T05:39:05.025Z,21.3
2022-11-22T05:40:04.988Z,21.3
2022-11-22T05:41:05.249Z,21.4
2022-11-22T05:42:04.926Z,21.4
2022-11-22T05:43:05.031Z,21.4
2022-11-22T05:44:04.923Z,21.5
2022-11-22T05:45:06.278Z,21.5
2022-11-22T05:46:05.277Z,21.6
2022-11-22T05:47:04.984Z,21.6
2022-11-22T05:48:05.101Z,21.6
2022-11-22T05:49:05.172Z,21.7
2022-11-22T05:50:04.995Z,21.7
2022-11-22T05:51:06.096Z,21.7
2022-11-22T05:52:05.067Z,21.7
2022-11-22T05:53:05.025Z,21.8
2022-11-22T05:54:05.940Z,21.8
2022-11-22T05:55:04.819Z,21.8
2022-11-22T05:56:05.907Z,21.9
2022-11-22T05:57:04.835Z,21.9
2022-11-22T05:58:05.521Z,21.9
2022-11-22T05:59:05.167Z,21.9
2022-11-22T06:00:05.067Z,22.0
2022-11-22T06:01:04.983Z,22.0
2022-11-22T06:02:05.032Z,22.1
2022-11-22T06:03:05.094Z,22.2
2022-11-22T06:04:05.018Z,22.3
2022-11-22T06:05:05.268Z,22.3
2022-11-22T06:06:04.773Z,22.4
2022-11-22T06:07:09.809Z,22.5
2022-11-22T06:08:04.825Z,22.5
2022-11-22T06:09:04.816Z,22.6
2022-11-22T06:10:04.676Z,22.6
2022-11-22T06:11:04.721Z,22.7
2022-11-22T06:12:04.664Z,22.7
2022-11-22T06:13:04.699Z,22.8
2022-11-22T06:14:04.668Z,22.8
2022-11-22T06:15:04.700Z,22.9
2022-11-22T06:17:37.806Z,22.7
2022-11-22T06:18:04.591Z,22.8
2022-11-22T06:19:04.504Z,22.9
2022-11-22T06:20:06.385Z,22.9
2022-11-22T06:21:04.480Z,22.9
2022-11-22T06:22:04.521Z,22.9
2022-11-22T06:23:04.503Z,22.9
2022-11-22T06:24:04.509Z,22.9
2022-11-22T06:25:04.479Z,22.9
2022-11-22T06:26:04.523Z,22.9
2022-11-22T06:27:04.483Z,22.9
2022-11-22T06:28:04.508Z,22.9
2022-11-22T06:29:04.512Z,22.9
2022-11-22T06:30:04.523Z,22.9
2022-11-22T06:31:04.499Z,22.8
2022-11-22T06:32:04.594Z,22.8
2022-11-22T06:33:04.582Z,22.8
2022-11-22T06:34:04.508Z,22.8
2022-11-22T06:35:04.517Z,22.8
2022-11-22T06:36:05.001Z,22.7
2022-11-22T06:37:05.796Z,22.7
2022-11-22T06:38:04.585Z,22.7
2022-11-22T06:39:04.487Z,22.7
2022-11-22T06:40:04.534Z,22.6
2022-11-22T06:41:04.512Z,22.6
2022-11-22T06:42:04.526Z,22.6
2022-11-22T06:43:04.488Z,22.6
2022-11-22T06:44:04.540Z,22.5
2022-11-22T06:45:04.505Z,22.5
2022-11-22T06:46:04.519Z,22.5
2022-11-22T06:47:04.545Z,22.4
2022-11-22T06:48:04.533Z,22.4
2022-11-22T06:49:04.498Z,22.4
2022-11-22T06:50:04.510Z,22.4
2022-11-22T06:51:04.486Z,22.3
2022-11-22T06:52:04.509Z,22.3
2022-11-22T06:53:04.625Z,22.2
2022-11-22T06:54:04.532Z,22.2
2022-11-22T06:55:07.927Z,22.2
2022-11-22T06:56:04.537Z,22.1
2022-11-22T06:57:04.491Z,22.1
2022-11-22T06:58:04.503Z,22.1
2022-11-22T06:59:04.544Z,22.0
2022-11-22T07:00:04.515Z,22.0
2022-11-22T07:01:04.555Z,22.0
2022-11-22T07:02:06.593Z,21.9
2022-11-22T07:03:04.498Z,21.9
2022-11-22T07:04:04.529Z,21.9
2022-11-22T07:05:25.173Z,21.8
2022-11-22T07:06:04.578Z,21.8
2022-11-22T07:07:04.536Z,21.8
2022-11-22T07:08:10.422Z,21.7
2022-11-22T07:09:04.500Z,21.7
2022-11-22T07:10:04.514Z,21.7
2022-11-22T07:11:53.003Z,21.7
2022-11-22T07:13:33.743Z,21.3
2022-11-22T07:14:08.311Z,21.4
2022-11-22T07:15:03.962Z,21.5
2022-11-22T07:16:03.996Z,21.5
2022-11-22T07:17:03.997Z,21.4
2022-11-22T07:18:03.991Z,21.4
2022-11-22T07:19:05.024Z,21.4
2022-11-22T07:20:03.989Z,21.3
2022-11-22T07:21:08.031Z,21.3
2022-11-22T07:22:04.002Z,21.2
2022-11-22T07:23:03.988Z,21.2
2022-11-22T07:24:04.004Z,21.2
2022-11-22T07:25:03.969Z,21.1
2022-11-22T07:26:03.988Z,21.1
2022-11-22T07:27:03.964Z,21.1
2022-11-22T07:28:03.985Z,21.1
2022-11-22T07:29:04.009Z,21.1
2022-11-22T07:30:05.154Z,21.0
2022-11-22T07:31:04.007Z,21.0
2022-11-22T07:32:04.454Z,21.0
2022-11-22T07:33:03.983Z,21.0
2022-11-22T07:34:06.215Z,20.9
2022-11-22T07:35:05.190Z,20.9
2022-11-22T07:36:04.178Z,20.9
2022-11-22T07:37:08.858Z,20.9
2022-11-22T07:38:04.249Z,20.9
2022-11-22T07:39:04.418Z,20.9
2022-11-22T07:40:04.024Z,20.8
2022-11-22T07:41:06.335Z,20.8
2022-11-22T07:42:04.597Z,20.8
2022-11-22T07:43:05.010Z,20.8
2022-11-22T07:44:05.743Z,20.8
2022-11-22T07:45:03.978Z,20.8
2022-11-22T07:46:11.716Z,20.7
2022-11-22T07:47:04.723Z,20.7
2022-11-22T07:48:04.664Z,20.7
2022-11-22T07:49:04.954Z,20.7
2022-11-22T07:50:06.662Z,20.7
2022-11-22T07:51:05.201Z,20.7
2022-11-22T07:52:06.138Z,20.6
2022-11-22T07:53:04.723Z,20.6
2022-11-22T07:54:04.812Z,20.6
2022-11-22T07:55:07.529Z,20.6
2022-11-22T07:56:04.752Z,20.5
2022-11-22T07:57:04.560Z,20.5
2022-11-22T07:58:04.610Z,20.4
2022-11-22T07:59:04.568Z,20.4
2022-11-22T08:00:04.615Z,20.4
2022-11-22T08:01:04.605Z,20.4
2022-11-22T08:02:04.695Z,20.3
2022-11-22T08:03:04.564Z,20.3
2022-11-22T08:04:04.611Z,20.3
2022-11-22T08:05:04.591Z,20.3
2022-11-22T08:06:04.615Z,20.2
2022-11-22T08:07:04.640Z,20.2
2022-11-22T08:08:04.589Z,20.3
2022-11-22T08:09:04.570Z,20.2
2022-11-22T08:10:04.622Z,20.2
2022-11-22T08:11:04.590Z,20.2
2022-11-22T08:12:04.591Z,20.2
2022-11-22T08:13:04.592Z,20.2
2022-11-22T08:14:04.631Z,20.2
2022-11-22T08:15:04.622Z,20.2
2022-11-22T08:16:05.558Z,20.1
2022-11-22T08:17:04.567Z,20.1
2022-11-22T08:18:04.580Z,20.1
2022-11-22T08:19:04.569Z,20.1
2022-11-22T08:20:04.678Z,20.1
2022-11-22T08:21:04.622Z,20.0
2022-11-22T08:22:04.615Z,20.0
2022-11-22T08:23:04.563Z,20.0
2022-11-22T08:24:04.593Z,20.0
2022-11-22T08:25:04.575Z,20.0
2022-11-22T08:26:04.632Z,19.9
2022-11-22T08:27:04.574Z,19.9
2022-11-22T08:28:05.747Z,19.9
2022-11-22T08:29:08.719Z,19.9
2022-11-22T08:30:04.947Z,19.9
2022-11-22T08:31:39.059Z,19.7
2022-11-22T08:32:04.864Z,19.8
2022-11-22T08:33:04.104Z,19.8
2022-11-22T08:34:04.106Z,19.8
2022-11-22T08:35:03.880Z,19.8
2022-11-22T08:36:04.022Z,19.8
2022-11-22T08:37:03.871Z,19.8
2022-11-22T08:38:03.898Z,19.8
2022-11-22T08:39:03.873Z,19.7
2022-11-22T08:40:03.940Z,19.7
2022-11-22T08:41:04.512Z,19.7
2022-11-22T08:42:03.921Z,19.7
2022-11-22T08:43:03.882Z,19.7
2022-11-22T08:44:03.903Z,19.7
2022-11-22T08:45:03.886Z,19.7
2022-11-22T08:46:03.971Z,19.7
2022-11-22T08:47:03.883Z,19.7
2022-11-22T08:48:03.907Z,19.7
2022-11-22T08:49:03.937Z,19.7
2022-11-22T08:50:03.905Z,19.7
2022-11-22T08:51:03.911Z,19.7
2022-11-22T08:52:04.781Z,19.7
2022-11-22T08:53:03.890Z,19.8
2022-11-22T08:54:03.898Z,19.8
2022-11-22T08:55:03.868Z,19.8
2022-11-22T08:56:03.908Z,19.8
2022-11-22T08:57:03.898Z,19.8
2022-11-22T08:58:03.918Z,19.8
2022-11-22T08:59:03.943Z,19.8
2022-11-22T09:00:03.897Z,19.8
2022-11-22T09:01:03.927Z,19.8
2022-11-22T09:02:03.961Z,19.8
2022-11-22T09:03:03.912Z,19.8
2022-11-22T09:04:03.915Z,19.8
2022-11-22T09:05:03.886Z,19.8
2022-11-22T09:08:25.563Z,19.6
2022-11-22T09:09:36.309Z,19.6
2022-11-22T09:10:03.971Z,19.6
2022-11-22T09:11:03.880Z,19.6
2022-11-22T09:12:03.914Z,19.6
2022-11-22T09:13:03.887Z,19.6
2022-11-22T09:14:03.940Z,19.6
2022-11-22T09:15:03.892Z,19.6
2022-11-22T09:16:03.905Z,19.6
2022-11-22T09:17:04.014Z,19.6
2022-11-22T09:18:03.915Z,19.5
2022-11-22T09:19:03.885Z,19.5
2022-11-22T09:20:03.950Z,19.5
2022-11-22T09:21:03.892Z,19.5
2022-11-22T09:22:03.912Z,19.5
2022-11-22T09:23:04.195Z,19.5
2022-11-22T09:25:57.893Z,19.2
2022-11-22T09:26:04.397Z,19.2
2022-11-22T09:27:04.026Z,19.4
2022-11-22T09:28:04.039Z,19.4
2022-11-22T09:29:04.003Z,19.4
2022-11-22T09:30:04.033Z,19.4
2022-11-22T09:31:04.035Z,19.4
2022-11-22T09:32:04.025Z,19.4
2022-11-22T09:33:04.004Z,19.4
2022-11-22T09:34:04.060Z,19.4
2022-11-22T09:35:04.001Z,19.4
2022-11-22T09:36:04.040Z,19.4
2022-11-22T09:37:04.032Z,19.3
2022-11-22T09:38:04.061Z,19.3
2022-11-22T09:39:04.011Z,19.3
2022-11-22T09:40:04.047Z,19.3
2022-11-22T09:41:04.012Z,19.3
2022-11-22T09:42:04.036Z,19.3
2022-11-22T09:43:04.040Z,19.3
2022-11-22T09:44:04.039Z,19.3
2022-11-22T09:45:04.048Z,19.3
2022-11-22T09:46:04.048Z,19.3
2022-11-22T09:47:04.038Z,19.3
2022-11-22T09:48:09.387Z,19.3
2022-11-22T09:49:04.261Z,19.2
2022-11-22T09:50:04.043Z,19.2
2022-11-22T09:51:04.039Z,19.2
2022-11-22T09:52:04.035Z,19.2
2022-11-22T09:53:04.007Z,19.2
2022-11-22T09:54:04.029Z,19.2
2022-11-22T09:55:04.049Z,19.2
2022-11-22T09:56:04.030Z,19.2
2022-11-22T09:57:04.068Z,19.2
2022-11-22T09:58:04.011Z,19.3
2022-11-22T09:59:04.048Z,19.3
2022-11-22T10:00:04.012Z,19.4
2022-11-22T10:01:04.066Z,19.4
2022-11-22T10:02:17.463Z,19.5
2022-11-22T10:03:04.072Z,19.5
2022-11-22T10:04:04.018Z,19.5
2022-11-22T10:05:04.039Z,19.6
2022-11-22T10:06:04.021Z,19.6
2022-11-22T10:07:04.080Z,19.6
2022-11-22T10:08:04.044Z,19.7
2022-11-22T10:09:04.122Z,19.7
2022-11-22T10:10:04.010Z,19.7
2022-11-22T10:11:04.045Z,19.7
2022-11-22T10:12:05.014Z,19.7
2022-11-22T10:13:04.043Z,19.7
2022-11-22T10:14:04.009Z,19.7
2022-11-22T10:15:04.069Z,19.7
2022-11-22T10:16:04.023Z,19.7
2022-11-22T10:17:04.053Z,19.7
2022-11-22T10:18:04.016Z,19.7
2022-11-22T10:19:04.061Z,19.7
2022-11-22T10:20:04.016Z,19.7
2022-11-22T10:21:04.087Z,19.7
2022-11-22T10:22:04.028Z,19.7
2022-11-22T10:23:04.040Z,19.7
2022-11-22T10:24:04.033Z,19.7
2022-11-22T10:25:04.041Z,19.6
2022-11-22T10:26:04.016Z,19.6
2022-11-22T10:27:04.068Z,19.6
2022-11-22T10:28:04.036Z,19.6
2022-11-22T10:29:04.050Z,19.5
2022-11-22T10:30:04.016Z,19.5
2022-11-22T10:31:04.058Z,19.5
2022-11-22T10:32:04.016Z,19.5
2022-11-22T10:33:04.098Z,19.5
2022-11-22T10:34:04.136Z,19.4
2022-11-22T10:35:04.038Z,19.4
2022-11-22T10:36:04.031Z,19.4
2022-11-22T10:37:04.041Z,19.3
2022-11-22T10:38:04.028Z,19.3
2022-11-22T10:39:04.079Z,19.3
2022-11-22T10:40:04.059Z,19.3
2022-11-22T10:41:04.052Z,19.3
2022-11-22T10:42:04.023Z,19.2
2022-11-22T10:43:04.078Z,19.2
2022-11-22T10:44:04.025Z,19.2
2022-11-22T10:45:04.093Z,19.2
2022-11-22T10:46:04.022Z,19.2
2022-11-22T10:47:04.044Z,19.2
2022-11-22T10:48:04.028Z,19.2
2022-11-22T10:49:04.051Z,19.1
2022-11-22T10:50:04.023Z,19.1
2022-11-22T10:51:04.127Z,19.1
2022-11-22T10:52:04.028Z,19.1
2022-11-22T10:53:04.070Z,19.1
2022-11-22T10:54:04.148Z,19.1
2022-11-22T10:55:04.054Z,19.1
2022-11-22T10:56:04.029Z,19.1
2022-11-22T10:57:04.075Z,19.1
2022-11-22T10:58:04.038Z,19.1
2022-11-22T10:59:04.129Z,19.1
2022-11-22T11:00:04.059Z,19.1
2022-11-22T11:01:04.092Z,19.0
2022-11-22T11:02:04.029Z,19.0
2022-11-22T11:03:04.100Z,19.0
2022-11-22T11:04:04.032Z,19.0
2022-11-22T11:05:04.084Z,19.0
2022-11-22T11:06:29.562Z,19.1
2022-11-22T11:07:12.212Z,19.0
2022-11-22T11:08:22.193Z,19.1
2022-11-22T11:10:11.795Z,19.1
2022-11-22T11:11:04.062Z,19.2
2022-11-22T11:12:04.047Z,19.2
2022-11-22T11:13:04.067Z,19.3
2022-11-22T11:14:04.041Z,19.4
2022-11-22T11:15:04.144Z,19.4
2022-11-22T11:16:04.549Z,19.4
2022-11-22T11:17:04.159Z,19.5
2022-11-22T11:18:04.978Z,19.5
2022-11-22T11:19:04.122Z,19.5
2022-11-22T11:20:04.095Z,19.5
2022-11-22T11:21:04.247Z,19.5
2022-11-22T11:22:04.119Z,19.5
2022-11-22T11:23:14.677Z,19.5
2022-11-22T11:24:04.099Z,19.5
2022-11-22T11:25:04.128Z,19.5
2022-11-22T11:26:04.103Z,19.5
2022-11-22T11:27:04.142Z,19.5
2022-11-22T11:28:04.135Z,19.5
2022-11-22T11:29:04.133Z,19.5
2022-11-22T11:30:04.171Z,19.5
2022-11-22T11:31:04.105Z,19.5
2022-11-22T11:32:04.049Z,19.5
2022-11-22T11:33:04.215Z,19.5
2022-11-22T11:34:04.924Z,19.5
2022-11-22T11:35:04.167Z,19.5
2022-11-22T11:36:04.094Z,19.5
2022-11-22T11:37:04.073Z,19.5
2022-11-22T11:38:04.101Z,19.5
2022-11-22T11:39:04.069Z,19.5
2022-11-22T11:40:04.039Z,19.5
2022-11-22T11:41:04.057Z,19.5
2022-11-22T11:42:04.045Z,19.5
2022-11-22T11:43:04.073Z,19.5
2022-11-22T11:44:04.034Z,19.5
2022-11-22T11:45:04.249Z,19.5
2022-11-22T11:46:04.052Z,19.5
2022-11-22T11:47:04.059Z,19.5
2022-11-22T11:48:04.093Z,19.5
2022-11-22T11:49:04.104Z,19.4
2022-11-22T11:50:04.044Z,19.4
2022-11-22T11:51:04.090Z,19.3
2022-11-22T11:52:04.081Z,19.3
2022-11-22T11:53:04.139Z,19.3
2022-11-22T11:54:04.120Z,19.3
2022-11-22T11:55:04.161Z,19.3
2022-11-22T11:56:04.097Z,19.3
2022-11-22T11:57:04.530Z,19.3
2022-11-22T11:58:04.121Z,19.2
2022-11-22T11:59:04.139Z,19.2
2022-11-22T12:00:04.100Z,19.2
2022-11-22T12:01:04.123Z,19.2
2022-11-22T12:02:04.171Z,19.1
2022-11-22T12:03:04.266Z,19.1
2022-11-22T12:04:04.131Z,19.1
2022-11-22T12:05:04.164Z,19.1
2022-11-22T12:06:04.170Z,19.1
2022-11-22T12:07:04.085Z,19.0
2022-11-22T12:08:04.040Z,19.0
2022-11-22T12:09:04.122Z,19.0
2022-11-22T12:10:04.066Z,19.0
2022-11-22T12:11:04.106Z,19.0
2022-11-22T12:12:04.057Z,19.0
2022-11-22T12:13:04.639Z,19.0
2022-11-22T12:14:19.428Z,19.0
2022-11-22T12:15:11.214Z,19.0
2022-11-22T12:16:04.064Z,19.0
2022-11-22T12:17:04.110Z,19.0
2022-11-22T12:18:04.062Z,19.0
2022-11-22T12:19:04.106Z,19.1
2022-11-22T12:20:10.824Z,19.1
2022-11-22T12:21:04.497Z,19.2
2022-11-22T12:22:04.474Z,19.2
2022-11-22T12:23:04.725Z,19.2
2022-11-22T12:24:34.483Z,19.3
2022-11-22T12:25:31.112Z,19.2
2022-11-22T12:26:04.544Z,19.2
2022-11-22T12:27:04.507Z,19.3
2022-11-22T12:28:04.493Z,19.3
2022-11-22T12:29:04.500Z,19.3
2022-11-22T12:30:04.483Z,19.4
2022-11-22T12:31:04.495Z,19.4
2022-11-22T12:32:04.505Z,19.4
2022-11-22T12:33:04.510Z,19.4
2022-11-22T12:34:04.477Z,19.5
2022-11-22T12:35:04.521Z,19.5
2022-11-22T12:36:05.385Z,19.5
2022-11-22T12:37:04.498Z,19.5
2022-11-22T12:38:04.513Z,19.5
2022-11-22T12:39:04.514Z,19.5
2022-11-22T12:40:04.479Z,19.5
2022-11-22T12:41:04.497Z,19.5
2022-11-22T12:42:04.488Z,19.5
2022-11-22T12:43:04.503Z,19.5
2022-11-22T12:44:04.675Z,19.5
2022-11-22T12:45:04.510Z,19.5
2022-11-22T12:46:04.489Z,19.5
2022-11-22T12:47:04.656Z,19.5
2022-11-22T12:48:04.472Z,19.5
2022-11-22T12:49:04.503Z,19.5
2022-11-22T12:50:04.484Z,19.5
2022-11-22T12:51:04.537Z,19.4
2022-11-22T12:52:04.501Z,19.4
2022-11-22T12:53:04.549Z,19.4
2022-11-22T12:54:04.511Z,19.4
2022-11-22T12:55:04.570Z,19.4
2022-11-22T12:56:04.562Z,19.4
2022-11-22T12:57:04.522Z,19.4
2022-11-22T12:58:04.493Z,19.4
2022-11-22T12:59:05.428Z,19.4
2022-11-22T13:00:04.496Z,19.3
2022-11-22T13:01:04.598Z,19.4
2022-11-22T13:02:04.490Z,19.3
2022-11-22T13:03:04.534Z,19.3
2022-11-22T13:04:04.476Z,19.3
2022-11-22T13:05:04.530Z,19.3
2022-11-22T13:06:04.488Z,19.3
2022-11-22T13:07:04.549Z,19.3
2022-11-22T13:08:04.481Z,19.3
2022-11-22T13:09:04.624Z,19.3
2022-11-22T13:10:04.521Z,19.3
2022-11-22T13:11:04.526Z,19.2
2022-11-22T13:12:04.538Z,19.2
2022-11-22T13:13:04.492Z,19.2
2022-11-22T13:14:04.506Z,19.2
2022-11-22T13:15:04.492Z,19.2
2022-11-22T13:16:04.505Z,19.2
2022-11-22T13:17:05.054Z,19.1
2022-11-22T13:18:04.512Z,19.1
2022-11-22T13:19:04.487Z,19.1
2022-11-22T13:20:04.526Z,19.1
2022-11-22T13:22:36.893Z,18.8
2022-11-22T13:23:04.858Z,18.9
2022-11-22T13:24:04.580Z,19.0
2022-11-22T13:25:04.621Z,19.0
2022-11-22T13:26:04.578Z,19.0
2022-11-22T13:27:04.668Z,19.0
2022-11-22T13:28:04.620Z,19.1